sensor_id;sensor_type;location;lat;lon;timestamp;P1;durP1;ratioP1;P2;durP2;ratioP2
20283;SDS011;10301;50.832;4.080;2024-01-07T00:00:01;13.93;;;8.63;;
20283;SDS011;10301;50.832;4.080;2024-01-07T00:02:27;14.90;;;8.40;;
20283;SDS011;10301;50.832;4.080;2024-01-07T00:04:52;17.30;;;9.40;;
20283;SDS011;10301;50.832;4.080;2024-01-07T00:07:18;14.77;;;9.10;;
20283;SDS011;10301;50.832;4.080;2024-01-07T00:09:45;17.83;;;8.87;;
20283;SDS011;10301;50.832;4.080;2024-01-07T00:12:11;17.53;;;9.70;;
20283;SDS011;10301;50.832;4.080;2024-01-07T00:14:37;14.87;;;9.00;;
20283;SDS011;10301;50.832;4.080;2024-01-07T00:17:02;15.93;;;9.37;;
20283;SDS011;10301;50.832;4.080;2024-01-07T00:19:28;13.53;;;8.93;;
20283;SDS011;10301;50.832;4.080;2024-01-07T00:21:56;15.80;;;9.03;;
20283;SDS011;10301;50.832;4.080;2024-01-07T00:24:22;14.80;;;8.50;;
20283;SDS011;10301;50.832;4.080;2024-01-07T00:26:50;13.73;;;8.70;;
20283;SDS011;10301;50.832;4.080;2024-01-07T00:29:16;12.57;;;7.93;;
20283;SDS011;10301;50.832;4.080;2024-01-07T00:31:42;15.17;;;8.43;;
20283;SDS011;10301;50.832;4.080;2024-01-07T00:34:07;16.63;;;8.67;;
20283;SDS011;10301;50.832;4.080;2024-01-07T00:36:33;12.93;;;8.60;;
20283;SDS011;10301;50.832;4.080;2024-01-07T00:38:59;12.90;;;8.70;;
20283;SDS011;10301;50.832;4.080;2024-01-07T00:41:24;13.93;;;8.43;;
20283;SDS011;10301;50.832;4.080;2024-01-07T00:43:50;14.63;;;9.23;;
20283;SDS011;10301;50.832;4.080;2024-01-07T00:46:16;14.37;;;8.87;;
20283;SDS011;10301;50.832;4.080;2024-01-07T00:48:41;13.67;;;8.10;;
20283;SDS011;10301;50.832;4.080;2024-01-07T00:51:07;13.50;;;8.47;;
20283;SDS011;10301;50.832;4.080;2024-01-07T00:53:33;15.27;;;9.10;;
20283;SDS011;10301;50.832;4.080;2024-01-07T00:55:58;15.47;;;8.43;;
20283;SDS011;10301;50.832;4.080;2024-01-07T00:58:24;14.27;;;8.63;;
20283;SDS011;10301;50.832;4.080;2024-01-07T01:00:50;14.53;;;8.80;;
20283;SDS011;10301;50.832;4.080;2024-01-07T01:03:18;15.97;;;7.93;;
20283;SDS011;10301;50.832;4.080;2024-01-07T01:05:44;14.17;;;8.60;;
20283;SDS011;10301;50.832;4.080;2024-01-07T01:08:10;11.43;;;8.07;;
20283;SDS011;10301;50.832;4.080;2024-01-07T01:10:36;14.00;;;8.67;;
20283;SDS011;10301;50.832;4.080;2024-01-07T01:13:01;15.13;;;8.93;;
20283;SDS011;10301;50.832;4.080;2024-01-07T01:15:27;13.23;;;8.33;;
20283;SDS011;10301;50.832;4.080;2024-01-07T01:17:53;13.20;;;8.30;;
20283;SDS011;10301;50.832;4.080;2024-01-07T01:20:18;14.07;;;9.10;;
20283;SDS011;10301;50.832;4.080;2024-01-07T01:22:44;13.60;;;8.87;;
20283;SDS011;10301;50.832;4.080;2024-01-07T01:25:10;13.97;;;8.90;;
20283;SDS011;10301;50.832;4.080;2024-01-07T01:27:36;14.87;;;8.37;;
20283;SDS011;10301;50.832;4.080;2024-01-07T01:30:02;14.30;;;8.30;;
20283;SDS011;10301;50.832;4.080;2024-01-07T01:32:27;13.37;;;8.20;;
20283;SDS011;10301;50.832;4.080;2024-01-07T01:34:53;13.13;;;8.30;;
20283;SDS011;10301;50.832;4.080;2024-01-07T01:37:19;14.47;;;8.43;;
20283;SDS011;10301;50.832;4.080;2024-01-07T01:39:44;12.83;;;7.97;;
20283;SDS011;10301;50.832;4.080;2024-01-07T01:42:10;12.80;;;8.07;;
20283;SDS011;10301;50.832;4.080;2024-01-07T01:44:36;12.93;;;7.93;;
20283;SDS011;10301;50.832;4.080;2024-01-07T01:47:01;10.90;;;7.17;;
20283;SDS011;10301;50.832;4.080;2024-01-07T01:49:27;12.77;;;7.90;;
20283;SDS011;10301;50.832;4.080;2024-01-07T01:51:53;12.13;;;7.97;;
20283;SDS011;10301;50.832;4.080;2024-01-07T01:54:19;13.40;;;8.33;;
20283;SDS011;10301;50.832;4.080;2024-01-07T01:56:46;14.33;;;8.73;;
20283;SDS011;10301;50.832;4.080;2024-01-07T01:59:13;13.57;;;8.23;;
20283;SDS011;10301;50.832;4.080;2024-01-07T02:01:39;12.93;;;8.20;;
20283;SDS011;10301;50.832;4.080;2024-01-07T02:04:05;15.63;;;9.30;;
20283;SDS011;10301;50.832;4.080;2024-01-07T02:06:31;14.53;;;8.97;;
20283;SDS011;10301;50.832;4.080;2024-01-07T02:08:57;16.60;;;9.43;;
20283;SDS011;10301;50.832;4.080;2024-01-07T02:11:23;15.93;;;9.73;;
20283;SDS011;10301;50.832;4.080;2024-01-07T02:13:49;15.60;;;9.37;;
20283;SDS011;10301;50.832;4.080;2024-01-07T02:16:15;14.73;;;9.37;;
20283;SDS011;10301;50.832;4.080;2024-01-07T02:18:41;13.53;;;8.50;;
20283;SDS011;10301;50.832;4.080;2024-01-07T02:21:09;14.57;;;9.03;;
20283;SDS011;10301;50.832;4.080;2024-01-07T02:23:35;15.10;;;9.80;;
20283;SDS011;10301;50.832;4.080;2024-01-07T02:26:01;14.83;;;9.47;;
20283;SDS011;10301;50.832;4.080;2024-01-07T02:28:27;18.03;;;10.20;;
20283;SDS011;10301;50.832;4.080;2024-01-07T02:30:53;17.33;;;9.60;;
20283;SDS011;10301;50.832;4.080;2024-01-07T02:33:18;17.27;;;9.53;;
20283;SDS011;10301;50.832;4.080;2024-01-07T02:35:44;16.10;;;10.23;;
20283;SDS011;10301;50.832;4.080;2024-01-07T02:38:10;16.00;;;10.33;;
20283;SDS011;10301;50.832;4.080;2024-01-07T02:40:35;17.80;;;10.27;;
20283;SDS011;10301;50.832;4.080;2024-01-07T02:43:01;17.67;;;10.30;;
20283;SDS011;10301;50.832;4.080;2024-01-07T02:45:26;16.73;;;10.53;;
20283;SDS011;10301;50.832;4.080;2024-01-07T02:47:52;17.20;;;10.37;;
20283;SDS011;10301;50.832;4.080;2024-01-07T02:50:18;17.47;;;12.37;;
20283;SDS011;10301;50.832;4.080;2024-01-07T02:52:43;17.90;;;11.73;;
20283;SDS011;10301;50.832;4.080;2024-01-07T02:55:09;14.80;;;10.03;;
20283;SDS011;10301;50.832;4.080;2024-01-07T02:57:35;17.43;;;11.23;;
20283;SDS011;10301;50.832;4.080;2024-01-07T03:00:00;18.53;;;10.83;;
20283;SDS011;10301;50.832;4.080;2024-01-07T03:02:27;20.57;;;12.87;;
20283;SDS011;10301;50.832;4.080;2024-01-07T03:04:53;20.40;;;12.43;;
20283;SDS011;10301;50.832;4.080;2024-01-07T03:07:19;20.83;;;11.90;;
20283;SDS011;10301;50.832;4.080;2024-01-07T03:09:44;19.37;;;12.77;;
20283;SDS011;10301;50.832;4.080;2024-01-07T03:12:10;20.33;;;13.03;;
20283;SDS011;10301;50.832;4.080;2024-01-07T03:14:35;21.67;;;13.33;;
20283;SDS011;10301;50.832;4.080;2024-01-07T03:17:01;26.43;;;15.27;;
20283;SDS011;10301;50.832;4.080;2024-01-07T03:19:27;25.57;;;13.90;;
20283;SDS011;10301;50.832;4.080;2024-01-07T03:21:52;23.53;;;14.17;;
20283;SDS011;10301;50.832;4.080;2024-01-07T03:24:18;26.13;;;15.37;;
20283;SDS011;10301;50.832;4.080;2024-01-07T03:26:44;24.87;;;14.97;;
20283;SDS011;10301;50.832;4.080;2024-01-07T03:29:09;24.47;;;14.57;;
20283;SDS011;10301;50.832;4.080;2024-01-07T03:31:35;26.93;;;14.00;;
20283;SDS011;10301;50.832;4.080;2024-01-07T03:34:00;26.43;;;14.63;;
20283;SDS011;10301;50.832;4.080;2024-01-07T03:36:26;21.30;;;13.13;;
20283;SDS011;10301;50.832;4.080;2024-01-07T03:38:52;25.87;;;14.47;;
20283;SDS011;10301;50.832;4.080;2024-01-07T03:41:19;23.57;;;13.23;;
20283;SDS011;10301;50.832;4.080;2024-01-07T03:43:48;23.87;;;14.63;;
20283;SDS011;10301;50.832;4.080;2024-01-07T03:46:15;24.37;;;14.23;;
20283;SDS011;10301;50.832;4.080;2024-01-07T03:48:41;28.87;;;15.17;;
20283;SDS011;10301;50.832;4.080;2024-01-07T03:51:07;26.07;;;15.23;;
20283;SDS011;10301;50.832;4.080;2024-01-07T03:53:33;25.07;;;14.83;;
20283;SDS011;10301;50.832;4.080;2024-01-07T03:55:59;25.13;;;15.63;;
20283;SDS011;10301;50.832;4.080;2024-01-07T03:58:25;26.53;;;16.03;;
20283;SDS011;10301;50.832;4.080;2024-01-07T04:00:50;26.57;;;15.63;;
20283;SDS011;10301;50.832;4.080;2024-01-07T04:03:16;25.57;;;16.10;;
20283;SDS011;10301;50.832;4.080;2024-01-07T04:05:42;28.60;;;17.67;;
20283;SDS011;10301;50.832;4.080;2024-01-07T04:08:10;26.10;;;17.30;;
20283;SDS011;10301;50.832;4.080;2024-01-07T04:10:36;26.83;;;16.97;;
20283;SDS011;10301;50.832;4.080;2024-01-07T04:13:03;29.07;;;17.03;;
20283;SDS011;10301;50.832;4.080;2024-01-07T04:15:31;26.83;;;16.60;;
20283;SDS011;10301;50.832;4.080;2024-01-07T04:18:00;26.60;;;16.07;;
20283;SDS011;10301;50.832;4.080;2024-01-07T04:20:29;26.63;;;16.50;;
20283;SDS011;10301;50.832;4.080;2024-01-07T04:22:55;24.57;;;15.30;;
20283;SDS011;10301;50.832;4.080;2024-01-07T04:25:22;23.70;;;14.97;;
20283;SDS011;10301;50.832;4.080;2024-01-07T04:27:48;25.57;;;15.33;;
20283;SDS011;10301;50.832;4.080;2024-01-07T04:30:13;26.93;;;15.53;;
20283;SDS011;10301;50.832;4.080;2024-01-07T04:32:39;27.90;;;15.47;;
20283;SDS011;10301;50.832;4.080;2024-01-07T04:35:05;29.80;;;16.37;;
20283;SDS011;10301;50.832;4.080;2024-01-07T04:37:31;27.50;;;16.67;;
20283;SDS011;10301;50.832;4.080;2024-01-07T04:39:57;27.60;;;17.13;;
20283;SDS011;10301;50.832;4.080;2024-01-07T04:42:23;30.27;;;17.73;;
20283;SDS011;10301;50.832;4.080;2024-01-07T04:44:48;32.30;;;17.53;;
20283;SDS011;10301;50.832;4.080;2024-01-07T04:47:25;26.57;;;15.53;;
20283;SDS011;10301;50.832;4.080;2024-01-07T04:49:55;27.63;;;16.17;;
20283;SDS011;10301;50.832;4.080;2024-01-07T04:52:22;27.20;;;16.63;;
20283;SDS011;10301;50.832;4.080;2024-01-07T04:54:48;27.80;;;15.70;;
20283;SDS011;10301;50.832;4.080;2024-01-07T04:57:21;27.77;;;16.63;;
20283;SDS011;10301;50.832;4.080;2024-01-07T04:59:47;25.10;;;17.27;;
20283;SDS011;10301;50.832;4.080;2024-01-07T05:02:14;28.80;;;17.93;;
20283;SDS011;10301;50.832;4.080;2024-01-07T05:04:40;30.53;;;16.73;;
20283;SDS011;10301;50.832;4.080;2024-01-07T05:07:06;29.13;;;16.53;;
20283;SDS011;10301;50.832;4.080;2024-01-07T05:09:32;26.47;;;16.33;;
20283;SDS011;10301;50.832;4.080;2024-01-07T05:11:58;27.43;;;17.03;;
20283;SDS011;10301;50.832;4.080;2024-01-07T05:14:25;30.10;;;17.50;;
20283;SDS011;10301;50.832;4.080;2024-01-07T05:16:50;27.63;;;17.20;;
20283;SDS011;10301;50.832;4.080;2024-01-07T05:19:16;29.33;;;16.50;;
20283;SDS011;10301;50.832;4.080;2024-01-07T05:21:42;28.40;;;17.67;;
20283;SDS011;10301;50.832;4.080;2024-01-07T05:24:07;29.87;;;17.70;;
20283;SDS011;10301;50.832;4.080;2024-01-07T05:26:42;28.37;;;16.70;;
20283;SDS011;10301;50.832;4.080;2024-01-07T05:29:09;29.80;;;17.30;;
20283;SDS011;10301;50.832;4.080;2024-01-07T05:31:36;29.83;;;18.47;;
20283;SDS011;10301;50.832;4.080;2024-01-07T05:34:02;32.00;;;18.00;;
20283;SDS011;10301;50.832;4.080;2024-01-07T05:36:28;31.30;;;17.87;;
20283;SDS011;10301;50.832;4.080;2024-01-07T05:38:54;28.67;;;17.90;;
20283;SDS011;10301;50.832;4.080;2024-01-07T05:41:19;35.57;;;18.70;;
20283;SDS011;10301;50.832;4.080;2024-01-07T05:43:45;32.90;;;18.93;;
20283;SDS011;10301;50.832;4.080;2024-01-07T05:46:11;31.93;;;17.63;;
20283;SDS011;10301;50.832;4.080;2024-01-07T05:48:43;28.93;;;17.67;;
20283;SDS011;10301;50.832;4.080;2024-01-07T05:51:10;32.33;;;18.53;;
20283;SDS011;10301;50.832;4.080;2024-01-07T05:53:36;31.37;;;18.70;;
20283;SDS011;10301;50.832;4.080;2024-01-07T05:56:02;33.83;;;19.40;;
20283;SDS011;10301;50.832;4.080;2024-01-07T05:58:28;35.03;;;18.50;;
20283;SDS011;10301;50.832;4.080;2024-01-07T06:00:54;32.27;;;19.50;;
20283;SDS011;10301;50.832;4.080;2024-01-07T06:03:19;33.27;;;19.70;;
20283;SDS011;10301;50.832;4.080;2024-01-07T06:05:45;33.33;;;19.13;;
20283;SDS011;10301;50.832;4.080;2024-01-07T06:08:11;35.70;;;19.73;;
20283;SDS011;10301;50.832;4.080;2024-01-07T06:10:38;35.03;;;20.03;;
20283;SDS011;10301;50.832;4.080;2024-01-07T06:13:04;38.77;;;20.63;;
20283;SDS011;10301;50.832;4.080;2024-01-07T06:15:30;36.87;;;19.47;;
20283;SDS011;10301;50.832;4.080;2024-01-07T06:17:55;35.20;;;19.87;;
20283;SDS011;10301;50.832;4.080;2024-01-07T06:20:21;36.60;;;20.23;;
20283;SDS011;10301;50.832;4.080;2024-01-07T06:22:47;36.07;;;19.67;;
20283;SDS011;10301;50.832;4.080;2024-01-07T06:25:13;36.30;;;20.47;;
20283;SDS011;10301;50.832;4.080;2024-01-07T06:27:38;34.77;;;19.53;;
20283;SDS011;10301;50.832;4.080;2024-01-07T06:30:05;33.03;;;20.13;;
20283;SDS011;10301;50.832;4.080;2024-01-07T06:32:31;34.70;;;19.60;;
20283;SDS011;10301;50.832;4.080;2024-01-07T06:34:57;37.77;;;20.37;;
20283;SDS011;10301;50.832;4.080;2024-01-07T06:37:23;35.93;;;20.57;;
20283;SDS011;10301;50.832;4.080;2024-01-07T06:39:49;35.17;;;20.93;;
20283;SDS011;10301;50.832;4.080;2024-01-07T06:42:14;34.30;;;20.83;;
20283;SDS011;10301;50.832;4.080;2024-01-07T06:44:40;34.10;;;19.50;;
20283;SDS011;10301;50.832;4.080;2024-01-07T06:47:06;34.43;;;20.23;;
20283;SDS011;10301;50.832;4.080;2024-01-07T06:49:32;31.70;;;19.10;;
20283;SDS011;10301;50.832;4.080;2024-01-07T06:52:01;32.00;;;18.70;;
20283;SDS011;10301;50.832;4.080;2024-01-07T06:54:26;32.13;;;18.40;;
20283;SDS011;10301;50.832;4.080;2024-01-07T06:56:52;29.93;;;18.33;;
20283;SDS011;10301;50.832;4.080;2024-01-07T06:59:17;30.07;;;17.33;;
20283;SDS011;10301;50.832;4.080;2024-01-07T07:01:43;28.23;;;16.80;;
20283;SDS011;10301;50.832;4.080;2024-01-07T07:04:09;33.60;;;20.33;;
20283;SDS011;10301;50.832;4.080;2024-01-07T07:06:34;33.40;;;17.70;;
20283;SDS011;10301;50.832;4.080;2024-01-07T07:09:00;32.43;;;17.73;;
20283;SDS011;10301;50.832;4.080;2024-01-07T07:11:26;32.80;;;17.20;;
20283;SDS011;10301;50.832;4.080;2024-01-07T07:13:51;31.27;;;17.77;;
20283;SDS011;10301;50.832;4.080;2024-01-07T07:16:17;35.53;;;17.50;;
20283;SDS011;10301;50.832;4.080;2024-01-07T07:18:43;33.47;;;19.43;;
20283;SDS011;10301;50.832;4.080;2024-01-07T07:21:08;36.83;;;19.30;;
20283;SDS011;10301;50.832;4.080;2024-01-07T07:23:34;38.23;;;18.50;;
20283;SDS011;10301;50.832;4.080;2024-01-07T07:26:00;36.67;;;18.37;;
20283;SDS011;10301;50.832;4.080;2024-01-07T07:28:25;37.17;;;19.40;;
20283;SDS011;10301;50.832;4.080;2024-01-07T07:30:52;37.67;;;18.87;;
20283;SDS011;10301;50.832;4.080;2024-01-07T07:33:18;34.10;;;17.23;;
20283;SDS011;10301;50.832;4.080;2024-01-07T07:35:44;35.07;;;19.00;;
20283;SDS011;10301;50.832;4.080;2024-01-07T07:38:09;46.53;;;17.70;;
20283;SDS011;10301;50.832;4.080;2024-01-07T07:40:35;36.60;;;19.20;;
20283;SDS011;10301;50.832;4.080;2024-01-07T07:43:01;39.67;;;18.97;;
20283;SDS011;10301;50.832;4.080;2024-01-07T07:45:27;35.77;;;20.27;;
20283;SDS011;10301;50.832;4.080;2024-01-07T07:47:52;36.03;;;17.70;;
20283;SDS011;10301;50.832;4.080;2024-01-07T07:50:18;39.20;;;19.27;;
20283;SDS011;10301;50.832;4.080;2024-01-07T07:52:44;38.83;;;20.47;;
20283;SDS011;10301;50.832;4.080;2024-01-07T07:55:10;37.47;;;19.60;;
20283;SDS011;10301;50.832;4.080;2024-01-07T07:57:36;36.53;;;17.73;;
20283;SDS011;10301;50.832;4.080;2024-01-07T08:00:03;40.03;;;19.43;;
20283;SDS011;10301;50.832;4.080;2024-01-07T08:02:32;40.77;;;19.63;;
20283;SDS011;10301;50.832;4.080;2024-01-07T08:04:58;38.43;;;19.23;;
20283;SDS011;10301;50.832;4.080;2024-01-07T08:07:24;41.23;;;20.50;;
20283;SDS011;10301;50.832;4.080;2024-01-07T08:09:50;42.47;;;20.23;;
20283;SDS011;10301;50.832;4.080;2024-01-07T08:12:16;42.47;;;21.47;;
20283;SDS011;10301;50.832;4.080;2024-01-07T08:14:41;47.97;;;22.97;;
20283;SDS011;10301;50.832;4.080;2024-01-07T08:17:07;52.87;;;22.53;;
20283;SDS011;10301;50.832;4.080;2024-01-07T08:19:33;51.40;;;23.10;;
20283;SDS011;10301;50.832;4.080;2024-01-07T08:21:59;49.63;;;23.67;;
20283;SDS011;10301;50.832;4.080;2024-01-07T08:24:25;55.37;;;24.93;;
20283;SDS011;10301;50.832;4.080;2024-01-07T08:26:50;42.90;;;21.50;;
20283;SDS011;10301;50.832;4.080;2024-01-07T08:29:17;43.70;;;21.07;;
20283;SDS011;10301;50.832;4.080;2024-01-07T08:31:42;51.43;;;22.17;;
20283;SDS011;10301;50.832;4.080;2024-01-07T08:34:08;47.43;;;23.53;;
20283;SDS011;10301;50.832;4.080;2024-01-07T08:36:34;46.13;;;23.40;;
20283;SDS011;10301;50.832;4.080;2024-01-07T08:38:59;47.13;;;22.07;;
20283;SDS011;10301;50.832;4.080;2024-01-07T08:41:25;50.10;;;23.80;;
20283;SDS011;10301;50.832;4.080;2024-01-07T08:43:51;48.17;;;23.10;;
20283;SDS011;10301;50.832;4.080;2024-01-07T08:46:19;48.03;;;24.40;;
20283;SDS011;10301;50.832;4.080;2024-01-07T08:48:45;47.10;;;23.13;;
20283;SDS011;10301;50.832;4.080;2024-01-07T08:51:12;48.63;;;21.60;;
20283;SDS011;10301;50.832;4.080;2024-01-07T08:53:38;49.50;;;24.93;;
20283;SDS011;10301;50.832;4.080;2024-01-07T08:56:04;46.73;;;22.97;;
20283;SDS011;10301;50.832;4.080;2024-01-07T08:58:31;47.03;;;25.50;;
20283;SDS011;10301;50.832;4.080;2024-01-07T09:00:57;47.90;;;24.77;;
20283;SDS011;10301;50.832;4.080;2024-01-07T09:03:23;48.93;;;23.57;;
20283;SDS011;10301;50.832;4.080;2024-01-07T09:05:49;47.67;;;22.50;;
20283;SDS011;10301;50.832;4.080;2024-01-07T09:08:14;47.43;;;24.10;;
20283;SDS011;10301;50.832;4.080;2024-01-07T09:10:40;45.10;;;22.80;;
20283;SDS011;10301;50.832;4.080;2024-01-07T09:13:06;48.60;;;23.17;;
20283;SDS011;10301;50.832;4.080;2024-01-07T09:15:31;46.90;;;23.43;;
20283;SDS011;10301;50.832;4.080;2024-01-07T09:17:57;51.20;;;24.93;;
20283;SDS011;10301;50.832;4.080;2024-01-07T09:20:23;44.17;;;23.47;;
20283;SDS011;10301;50.832;4.080;2024-01-07T09:22:49;43.23;;;20.97;;
20283;SDS011;10301;50.832;4.080;2024-01-07T09:25:14;43.90;;;21.57;;
20283;SDS011;10301;50.832;4.080;2024-01-07T09:27:41;49.43;;;24.23;;
20283;SDS011;10301;50.832;4.080;2024-01-07T09:30:08;47.13;;;23.30;;
20283;SDS011;10301;50.832;4.080;2024-01-07T09:32:35;41.57;;;22.00;;
20283;SDS011;10301;50.832;4.080;2024-01-07T09:35:01;47.03;;;21.97;;
20283;SDS011;10301;50.832;4.080;2024-01-07T09:37:27;45.07;;;23.27;;
20283;SDS011;10301;50.832;4.080;2024-01-07T09:39:53;44.67;;;22.50;;
20283;SDS011;10301;50.832;4.080;2024-01-07T09:42:19;42.40;;;22.33;;
20283;SDS011;10301;50.832;4.080;2024-01-07T09:44:45;44.77;;;22.70;;
20283;SDS011;10301;50.832;4.080;2024-01-07T09:47:11;45.77;;;21.87;;
20283;SDS011;10301;50.832;4.080;2024-01-07T09:49:41;43.70;;;21.87;;
20283;SDS011;10301;50.832;4.080;2024-01-07T09:52:09;45.30;;;22.73;;
20283;SDS011;10301;50.832;4.080;2024-01-07T09:54:36;43.03;;;22.07;;
20283;SDS011;10301;50.832;4.080;2024-01-07T09:57:05;41.47;;;20.90;;
20283;SDS011;10301;50.832;4.080;2024-01-07T09:59:32;38.83;;;20.80;;
20283;SDS011;10301;50.832;4.080;2024-01-07T10:02:04;43.37;;;23.17;;
20283;SDS011;10301;50.832;4.080;2024-01-07T10:04:30;47.07;;;24.30;;
20283;SDS011;10301;50.832;4.080;2024-01-07T10:06:56;44.50;;;22.77;;
20283;SDS011;10301;50.832;4.080;2024-01-07T10:09:22;46.97;;;22.80;;
20283;SDS011;10301;50.832;4.080;2024-01-07T10:11:49;45.90;;;23.53;;
20283;SDS011;10301;50.832;4.080;2024-01-07T10:14:15;48.03;;;23.53;;
20283;SDS011;10301;50.832;4.080;2024-01-07T10:16:41;44.07;;;21.97;;
20283;SDS011;10301;50.832;4.080;2024-01-07T10:19:07;40.03;;;22.90;;
20283;SDS011;10301;50.832;4.080;2024-01-07T10:21:33;42.03;;;21.93;;
20283;SDS011;10301;50.832;4.080;2024-01-07T10:24:08;40.90;;;22.03;;
20283;SDS011;10301;50.832;4.080;2024-01-07T10:26:35;40.90;;;21.10;;
20283;SDS011;10301;50.832;4.080;2024-01-07T10:29:05;38.50;;;20.57;;
20283;SDS011;10301;50.832;4.080;2024-01-07T10:31:32;37.20;;;19.10;;
20283;SDS011;10301;50.832;4.080;2024-01-07T10:33:57;36.63;;;20.80;;
20283;SDS011;10301;50.832;4.080;2024-01-07T10:36:26;40.53;;;21.43;;
20283;SDS011;10301;50.832;4.080;2024-01-07T10:38:52;40.17;;;20.40;;
20283;SDS011;10301;50.832;4.080;2024-01-07T10:41:20;43.13;;;21.50;;
20283;SDS011;10301;50.832;4.080;2024-01-07T10:43:50;37.53;;;21.73;;
20283;SDS011;10301;50.832;4.080;2024-01-07T10:46:15;40.00;;;20.27;;
20283;SDS011;10301;50.832;4.080;2024-01-07T10:48:54;39.43;;;21.80;;
20283;SDS011;10301;50.832;4.080;2024-01-07T10:51:21;36.70;;;20.57;;
20283;SDS011;10301;50.832;4.080;2024-01-07T10:53:51;34.97;;;20.10;;
20283;SDS011;10301;50.832;4.080;2024-01-07T10:56:22;39.47;;;21.40;;
20283;SDS011;10301;50.832;4.080;2024-01-07T10:58:52;44.47;;;22.90;;
20283;SDS011;10301;50.832;4.080;2024-01-07T11:01:22;43.83;;;24.40;;
20283;SDS011;10301;50.832;4.080;2024-01-07T11:06:34;42.00;;;23.17;;
20283;SDS011;10301;50.832;4.080;2024-01-07T11:11:39;39.33;;;21.60;;
20283;SDS011;10301;50.832;4.080;2024-01-07T11:17:10;36.17;;;19.47;;
20283;SDS011;10301;50.832;4.080;2024-01-07T11:19:52;35.87;;;22.20;;
20283;SDS011;10301;50.832;4.080;2024-01-07T11:22:22;36.60;;;19.77;;
20283;SDS011;10301;50.832;4.080;2024-01-07T11:24:59;36.60;;;22.20;;
20283;SDS011;10301;50.832;4.080;2024-01-07T11:27:27;37.57;;;23.03;;
20283;SDS011;10301;50.832;4.080;2024-01-07T11:29:56;32.70;;;17.53;;
20283;SDS011;10301;50.832;4.080;2024-01-07T11:32:28;33.53;;;17.93;;
20283;SDS011;10301;50.832;4.080;2024-01-07T11:34:54;33.47;;;19.13;;
20283;SDS011;10301;50.832;4.080;2024-01-07T11:37:21;31.20;;;19.50;;
20283;SDS011;10301;50.832;4.080;2024-01-07T11:39:48;32.83;;;19.70;;
20283;SDS011;10301;50.832;4.080;2024-01-07T11:42:16;36.80;;;19.63;;
20283;SDS011;10301;50.832;4.080;2024-01-07T11:44:49;33.93;;;19.57;;
20283;SDS011;10301;50.832;4.080;2024-01-07T11:47:19;29.67;;;18.33;;
20283;SDS011;10301;50.832;4.080;2024-01-07T11:49:46;30.57;;;17.83;;
20283;SDS011;10301;50.832;4.080;2024-01-07T11:52:12;29.13;;;17.43;;
20283;SDS011;10301;50.832;4.080;2024-01-07T11:54:38;31.30;;;18.47;;
20283;SDS011;10301;50.832;4.080;2024-01-07T11:57:05;32.63;;;18.60;;
20283;SDS011;10301;50.832;4.080;2024-01-07T11:59:31;28.97;;;17.43;;
20283;SDS011;10301;50.832;4.080;2024-01-07T12:01:59;29.63;;;17.73;;
20283;SDS011;10301;50.832;4.080;2024-01-07T12:04:25;28.43;;;17.07;;
20283;SDS011;10301;50.832;4.080;2024-01-07T12:06:51;35.00;;;18.43;;
20283;SDS011;10301;50.832;4.080;2024-01-07T12:09:17;31.33;;;19.33;;
20283;SDS011;10301;50.832;4.080;2024-01-07T12:11:42;29.53;;;18.30;;
20283;SDS011;10301;50.832;4.080;2024-01-07T12:14:09;29.83;;;18.60;;
20283;SDS011;10301;50.832;4.080;2024-01-07T12:16:36;27.30;;;17.67;;
20283;SDS011;10301;50.832;4.080;2024-01-07T12:19:01;28.73;;;16.83;;
20283;SDS011;10301;50.832;4.080;2024-01-07T12:21:27;28.17;;;16.90;;
20283;SDS011;10301;50.832;4.080;2024-01-07T12:23:54;26.73;;;16.27;;
20283;SDS011;10301;50.832;4.080;2024-01-07T12:26:25;29.47;;;18.13;;
20283;SDS011;10301;50.832;4.080;2024-01-07T12:28:55;29.97;;;18.53;;
20283;SDS011;10301;50.832;4.080;2024-01-07T12:31:25;30.03;;;18.07;;
20283;SDS011;10301;50.832;4.080;2024-01-07T12:33:54;30.27;;;19.07;;
20283;SDS011;10301;50.832;4.080;2024-01-07T12:36:21;31.40;;;19.07;;
20283;SDS011;10301;50.832;4.080;2024-01-07T12:38:48;29.87;;;18.57;;
20283;SDS011;10301;50.832;4.080;2024-01-07T12:41:14;27.83;;;16.03;;
20283;SDS011;10301;50.832;4.080;2024-01-07T12:43:40;31.80;;;17.37;;
20283;SDS011;10301;50.832;4.080;2024-01-07T12:46:05;31.00;;;18.57;;
20283;SDS011;10301;50.832;4.080;2024-01-07T12:48:32;30.27;;;18.50;;
20283;SDS011;10301;50.832;4.080;2024-01-07T12:50:58;31.67;;;17.30;;
20283;SDS011;10301;50.832;4.080;2024-01-07T12:53:24;29.17;;;18.30;;
20283;SDS011;10301;50.832;4.080;2024-01-07T12:55:50;30.03;;;17.87;;
20283;SDS011;10301;50.832;4.080;2024-01-07T12:58:16;28.57;;;16.73;;
20283;SDS011;10301;50.832;4.080;2024-01-07T13:00:42;40.90;;;20.97;;
20283;SDS011;10301;50.832;4.080;2024-01-07T13:03:08;31.90;;;19.57;;
20283;SDS011;10301;50.832;4.080;2024-01-07T13:05:39;31.53;;;17.37;;
20283;SDS011;10301;50.832;4.080;2024-01-07T13:08:06;33.20;;;18.40;;
20283;SDS011;10301;50.832;4.080;2024-01-07T13:10:32;32.47;;;19.63;;
20283;SDS011;10301;50.832;4.080;2024-01-07T13:12:58;31.87;;;18.47;;
20283;SDS011;10301;50.832;4.080;2024-01-07T13:15:24;29.40;;;15.70;;
20283;SDS011;10301;50.832;4.080;2024-01-07T13:17:50;30.37;;;19.00;;
20283;SDS011;10301;50.832;4.080;2024-01-07T13:20:16;26.83;;;17.00;;
20283;SDS011;10301;50.832;4.080;2024-01-07T13:22:45;28.97;;;17.07;;
20283;SDS011;10301;50.832;4.080;2024-01-07T13:25:12;29.03;;;18.03;;
20283;SDS011;10301;50.832;4.080;2024-01-07T13:27:38;31.83;;;17.73;;
20283;SDS011;10301;50.832;4.080;2024-01-07T13:30:06;28.87;;;18.20;;
20283;SDS011;10301;50.832;4.080;2024-01-07T13:32:33;28.43;;;17.53;;
20283;SDS011;10301;50.832;4.080;2024-01-07T13:35:05;27.37;;;17.17;;
20283;SDS011;10301;50.832;4.080;2024-01-07T13:37:35;29.37;;;16.33;;
20283;SDS011;10301;50.832;4.080;2024-01-07T13:40:01;29.97;;;19.47;;
20283;SDS011;10301;50.832;4.080;2024-01-07T13:42:28;31.40;;;18.37;;
20283;SDS011;10301;50.832;4.080;2024-01-07T13:44:54;28.10;;;17.57;;
20283;SDS011;10301;50.832;4.080;2024-01-07T13:47:20;28.93;;;17.03;;
20283;SDS011;10301;50.832;4.080;2024-01-07T13:49:46;28.53;;;17.30;;
20283;SDS011;10301;50.832;4.080;2024-01-07T13:52:12;28.33;;;16.67;;
20283;SDS011;10301;50.832;4.080;2024-01-07T13:54:37;31.13;;;19.17;;
20283;SDS011;10301;50.832;4.080;2024-01-07T13:57:04;28.67;;;17.17;;
20283;SDS011;10301;50.832;4.080;2024-01-07T13:59:29;27.07;;;17.27;;
20283;SDS011;10301;50.832;4.080;2024-01-07T14:01:55;30.67;;;16.83;;
20283;SDS011;10301;50.832;4.080;2024-01-07T14:04:23;30.50;;;17.97;;
20283;SDS011;10301;50.832;4.080;2024-01-07T14:06:53;32.87;;;20.77;;
20283;SDS011;10301;50.832;4.080;2024-01-07T14:09:20;30.03;;;19.23;;
20283;SDS011;10301;50.832;4.080;2024-01-07T14:11:45;38.50;;;24.00;;
20283;SDS011;10301;50.832;4.080;2024-01-07T14:14:11;30.90;;;19.87;;
20283;SDS011;10301;50.832;4.080;2024-01-07T14:16:37;30.27;;;20.13;;
20283;SDS011;10301;50.832;4.080;2024-01-07T14:19:02;22.47;;;15.60;;
20283;SDS011;10301;50.832;4.080;2024-01-07T14:21:28;27.57;;;17.13;;
20283;SDS011;10301;50.832;4.080;2024-01-07T14:23:55;25.13;;;16.13;;
20283;SDS011;10301;50.832;4.080;2024-01-07T14:26:21;24.73;;;16.17;;